| Ora | Descriere | Temp | Se simte | Precipitatii | Umiditate | Vant |
|---|---|---|---|---|---|---|
| 00:00 | Senin | 14.4° | 13.7° | 0% | 63% | SSE 11.5 KM/H |
| 01:00 | Senin | 13.9° | 13.3° | 0% | 63% | SSE 10.4 KM/H |
| 02:00 | Senin | 13.4° | 12.9° | 0% | 64% | SSE 9 KM/H |
| 03:00 | Senin | 12.8° | 12.3° | 0% | 67% | S 8.3 KM/H |
| 04:00 | Senin | 12.3° | 11.9° | 0% | 70% | SSE 6.8 KM/H |
| 05:00 | Senin | 11.8° | 11.6° | 0% | 73% | SE 5.8 KM/H |
| 06:00 | Senin | 11.3° | 11.4° | 0% | 75% | SE 4.3 KM/H |
| 07:00 | Senin | 11.9° | 12° | 0% | 76% | SE 4.7 KM/H |
| 08:00 | Senin | 15.1° | 15.1° | 0% | 69% | SSE 4.3 KM/H |
| 09:00 | Senin | 17.4° | 17.4° | 0% | 62% | SSW 5.8 KM/H |
| 10:00 | Senin | 19.2° | 19.2° | 0% | 57% | SW 6.1 KM/H |
| 11:00 | Senin | 20.9° | 20.9° | 0% | 53% | WSW 7.2 KM/H |
| 12:00 | Senin | 22.4° | 24.5° | 0% | 49% | W 7.6 KM/H |
| 13:00 | Senin | 23.5° | 24.8° | 0% | 46% | WNW 6.8 KM/H |
| 14:00 | Senin | 24.6° | 25.3° | 0% | 44% | WNW 5.8 KM/H |
| 15:00 | Senin | 25.5° | 25.8° | 0% | 41% | NW 3.6 KM/H |
| 16:00 | Senin | 25.9° | 25.8° | 0% | 38% | NNW 0.7 KM/H |
| 17:00 | Senin | 25.8° | 25.6° | 0% | 35% | E 1.4 KM/H |
| 18:00 | Senin | 25.6° | 25.5° | 0% | 35% | E 4.3 KM/H |
| 19:00 | Senin | 24.4° | 25.3° | 0% | 47% | ESE 5.8 KM/H |
| 20:00 | Senin | 20.3° | 20.3° | 0% | 52% | SE 7.2 KM/H |
| 21:00 | Patchy rain nearby | 18.4° | 18.4° | 68% | 54% | SSE 7.9 KM/H |
| 22:00 | Senin | 17.7° | 17.7° | 0% | 56% | SSE 6.5 KM/H |
| 23:00 | Senin | 17° | 17° | 0% | 57% | SSE 6.5 KM/H |